Flight Track Log - Related Links

Times and Time Zones

All times are in EDT time to prevent confusion due to time zone crossing. See the N360FE flight status page for this flight to view local times or setup timezone preferences in your user account.

Time Position Orientation Groundspeed Altitude Reporting Facility
EDT Latitude Longitude Course Direction KTS MPH feet Rate Location/Type
Wed 04:51:26 PM 35.0167 -89.9667 180° South 152 175 1,200  Level KMEM
Wed 04:52:14 PM 34.9833 -89.9667 180° South 173 199 2,200 1,667 Climbing KMEM
Wed 04:53:32 PM 34.9500 -89.8833 116° Southeast 275 316 4,700 2,350 Climbing KMEM
Wed 04:54:14 PM 34.9833 -89.8333 51° Northeast 294 338 6,900 2,321 Climbing KMEM
Wed 04:56:20 PM 35.0533 -89.6367 66° East 340 391 11,200 1,839 Climbing Memphis Center
Wed 04:57:20 PM 35.0983 -89.5119 66° East 345 397 12,600 1,650 Climbing Memphis Center
Wed 04:58:20 PM 35.1475 -89.3869 64° Northeast 380 437 14,500 1,950 Climbing Memphis Center
Wed 04:59:20 PM 35.1964 -89.2542 66° East 410 472 16,500 2,150 Climbing Memphis Center
Wed 05:00:20 PM 35.2453 -89.1189 66° East 423 487 18,800 1,900 Climbing Memphis Center
Wed 05:01:20 PM 35.2981 -88.9833 64° Northeast 423 487 20,300 1,500 Climbing Memphis Center
Wed 05:02:20 PM 35.3528 -88.8422 65° Northeast 437 503 21,800 1,500 Climbing Memphis Center
Wed 05:03:20 PM 35.4050 -88.6989 66° East 453 521 23,300 1,350 Climbing Memphis Center
Wed 05:04:20 PM 35.4533 -88.5653 66° East 458 527 24,500 1,250 Climbing Memphis Center
Wed 05:05:20 PM 35.5094 -88.4161 65° Northeast 468 539 25,800 1,300 Climbing Memphis Center
Wed 05:06:20 PM 35.5675 -88.2617 65° Northeast 473 544 27,100 822 Climbing Memphis Center
Wed 05:11:47 PM 35.8860 -87.3900 65° Northeast 524 603 31,100 752 Climbing FlightAware ADS-B
Wed 05:12:27 PM 35.9240 -87.2850 66° East 518 596 31,700 1,059 Climbing FlightAware ADS-B
Wed 05:13:12 PM 35.9670 -87.1650 66° East 506 582 32,600 1,059 Climbing FlightAware ADS-B
Wed 05:13:52 PM 36.0020 -87.0640 67° East 505 581 33,200 900 Climbing FlightAware ADS-B
Wed 05:14:32 PM 36.0400 -86.9590 66° East 504 580 33,800 565 Climbing FlightAware ADS-B
Wed 05:15:17 PM 36.0840 -86.8320 67° East 501 577 34,000 289 Climbing FlightAware ADS-B
Wed 05:15:55 PM 36.1231 -86.7245 66° East 502 578 34,200 750 Climbing FlightAware ADS-B
Wed 05:16:29 PM 36.1544 -86.6354 66° East 500 575 34,900 658 Climbing FlightAware ADS-B
Wed 05:17:08 PM 36.1874 -86.5321 68° East 496 571 35,000 62 Climbing FlightAware ADS-B
Wed 05:18:06 PM 36.2371 -86.3753 69° East 497 572 35,000  Level FlightAware ADS-B
Wed 05:18:47 PM 36.2690 -86.2790 68° East 507 583 35,000  Level FlightAware ADS-B
Wed 05:19:03 PM 36.2864 -86.2220 69° East 512 589 35,000  Level FlightAware ADS-B
Wed 05:19:34 PM 36.3133 -86.1403 68° East 510 587 35,000  Level FlightAware ADS-B
Wed 05:20:09 PM 36.3430 -86.0456 69° East 506 582 35,000  Level FlightAware ADS-B
Wed 05:20:52 PM 36.3760 -85.9410 69° East 500 575 35,000  Level FlightAware ADS-B
Wed 05:21:47 PM 36.4220 -85.7990 68° East 499 574 35,000  Level FlightAware ADS-B
Wed 05:22:14 PM 36.4492 -85.7107 69° East 503 579 35,000  Level FlightAware ADS-B
Wed 05:22:45 PM 36.4753 -85.6276 69° East 500 575 35,000  Level FlightAware ADS-B
Wed 05:23:16 PM 36.5014 -85.5446 69° East 501 577 35,000  Level FlightAware ADS-B
Wed 05:23:47 PM 36.5273 -85.4617 69° East 500 575 35,000  Level FlightAware ADS-B
Wed 05:24:22 PM 36.5570 -85.3651 69° East 500 575 35,000  Level FlightAware ADS-B
Wed 05:25:05 PM 36.5927 -85.2499 69° East 500 575 35,000  Level FlightAware ADS-B
Wed 05:26:12 PM 36.6479 -85.0728 69° East 500 575 35,000  Level FlightAware ADS-B
Wed 05:26:52 PM 36.6810 -84.9655 69° East 499 574 35,000  Level FlightAware ADS-B
Wed 05:27:25 PM 36.7078 -84.8772 69° East 498 573 35,000  Level FlightAware ADS-B
Wed 05:27:59 PM 36.7362 -84.7832 69° East 499 574 35,000  Level FlightAware ADS-B
Wed 05:28:31 PM 36.7624 -84.6971 69° East 499 574 35,000  Level FlightAware ADS-B
Wed 05:29:09 PM 36.7928 -84.5975 69° East 500 575 35,000  Level FlightAware ADS-B
Wed 05:29:43 PM 36.8209 -84.5056 69° East 501 577 35,000  Level FlightAware ADS-B
Wed 05:30:14 PM 36.8460 -84.4219 69° East 502 578 35,000  Level FlightAware ADS-B
Wed 05:30:45 PM 36.8711 -84.3380 69° East 502 578 35,000  Level FlightAware ADS-B
Wed 05:31:15 PM 36.8957 -84.2565 69° East 503 579 35,000  Level FlightAware ADS-B
Wed 05:31:46 PM 36.9211 -84.1722 69° East 503 579 35,000  Level FlightAware ADS-B
Wed 05:32:16 PM 36.9455 -84.0875 70° East 505 581 35,000  Level FlightAware ADS-B
Wed 05:32:48 PM 36.9711 -84.0028 69° East 505 581 35,000 97 Level FlightAware ADS-B
Wed 05:33:18 PM 36.9960 -83.9178 70° East 507 583 35,100 74 Climbing FlightAware ADS-B
Wed 05:34:09 PM 37.0375 -83.7774 70° East 507 583 35,100  Level FlightAware ADS-B
Wed 05:34:40 PM 37.0628 -83.6953 69° East 506 582 35,100 -97 Level FlightAware ADS-B
Wed 05:35:11 PM 37.0879 -83.6106 70° East 506 582 35,000 -88 Descending FlightAware ADS-B
Wed 05:35:48 PM 37.1191 -83.5063 69° East 506 582 35,000  Level FlightAware ADS-B
Wed 05:36:23 PM 37.1472 -83.4132 69° East 506 582 35,000  Level FlightAware ADS-B
Wed 05:36:53 PM 37.1719 -83.3281 70° East 506 582 35,000  Level FlightAware ADS-B
Wed 05:37:32 PM 37.2030 -83.2236 69° East 505 581 35,000 74 Level FlightAware ADS-B
Wed 05:38:14 PM 37.2375 -83.1058 70° East 502 578 35,100  Climbing FlightAware ADS-B
Wed 05:38:48 PM 37.2648 -83.0135 70° East 500 575 35,000  Descending FlightAware ADS-B
Wed 05:44:41 PM 37.5428 -82.0531 70° East 499 574 35,100 16 Climbing FlightAware ADS-B
Wed 05:45:14 PM 37.5680 -81.9657 70° East 499 574 35,100  Level FlightAware ADS-B
Wed 05:45:46 PM 37.5929 -81.8779 70° East 500 575 35,100 -95 Level FlightAware ADS-B
Wed 05:46:17 PM 37.6165 -81.7932 71° East 498 573 35,000 -86 Descending FlightAware ADS-B
Wed 05:46:56 PM 37.6470 -81.6838 71° East 498 573 35,000  Level FlightAware ADS-B
Wed 05:47:28 PM 37.6713 -81.5992 70° East 498 573 35,000  Level FlightAware ADS-B
Wed 05:48:04 PM 37.6989 -81.5006 70° East 497 572 35,000  Level FlightAware ADS-B
Wed 05:48:42 PM 37.7275 -81.3967 71° East 497 572 35,000  Level FlightAware ADS-B
Wed 05:49:12 PM 37.7502 -81.3145 71° East 497 572 35,000  Level FlightAware ADS-B
Wed 05:49:43 PM 37.7734 -81.2296 71° East 497 572 35,000  Level FlightAware ADS-B
Wed 05:50:34 PM 37.8118 -81.0896 71° East 497 572 35,000 46 Level FlightAware ADS-B
Wed 05:51:54 PM 37.8725 -80.8671 71° East 498 573 35,100  Climbing FlightAware ADS-B
Wed 05:52:22 PM 37.8844 -80.8211 71° East 497 572 35,000 -83 Descending Indianapolis Center
Wed 05:53:06 PM 37.9211 -80.6856 71° East 491 565 35,000  Level Washington Center
Wed 05:54:06 PM 37.9631 -80.5331 71° East 496 571 35,000  Level Washington Center
Wed 05:55:06 PM 38.0092 -80.3700 70° East 496 571 35,000  Level Washington Center
Wed 05:56:06 PM 38.0533 -80.2042 71° East 496 571 35,000  Level Washington Center
Wed 05:57:06 PM 38.0972 -80.0378 71° East 496 571 35,000  Level Washington Center
Wed 05:58:06 PM 38.1456 -79.8558 71° East 496 571 35,000  Level Washington Center
Wed 05:59:06 PM 38.1886 -79.6919 71° East 496 571 35,000 -350 Level Washington Center
Wed 06:00:06 PM 38.2317 -79.5278 71° East 496 571 34,300 -1,450 Descending Washington Center
Wed 06:01:06 PM 38.2747 -79.3608 72° East 496 571 32,100 -2,250 Descending Washington Center
Wed 06:02:06 PM 38.3150 -79.2014 72° East 491 565 29,800 -2,150 Descending Washington Center
Wed 06:03:06 PM 38.3503 -79.0653 72° East 467 537 27,800 -1,228 Descending Washington Center
Wed 06:08:32 PM 38.5450 -78.2590 72° East 425 489 21,900 -1,082 Descending FlightAware ADS-B
Wed 06:09:12 PM 38.5700 -78.1590 72° East 421 484 21,200 -640 Descending FlightAware ADS-B
Wed 06:09:47 PM 38.5890 -78.0820 72° East 420 483 21,100 -1,040 Descending FlightAware ADS-B
Wed 06:10:27 PM 38.6120 -77.9850 73° East 405 466 19,900 -1,400 Descending FlightAware ADS-B
Wed 06:11:17 PM 38.6400 -77.8630 74° East 404 465 19,000 -947 Descending FlightAware ADS-B
Wed 06:12:02 PM 38.6470 -77.7620 85° East 406 467 18,400 -825 Descending FlightAware ADS-B
Wed 06:12:37 PM 38.6530 -77.6740 85° East 404 465 17,900 -821 Descending FlightAware ADS-B
Wed 06:13:37 PM 38.6610 -77.5340 86° East 398 458 17,100 -857 Descending FlightAware ADS-B
Wed 06:14:22 PM 38.6670 -77.4260 86° East 396 456 16,400 -750 Descending FlightAware ADS-B
Wed 06:14:57 PM 38.6720 -77.3490 85° East 394 453 16,100 -320 Descending FlightAware ADS-B
Wed 06:15:37 PM 38.6780 -77.2530 85° East 398 458 16,000 -1,467 Descending FlightAware ADS-B
Wed 06:16:27 PM 38.6850 -77.1350 86° East 404 465 13,900 -2,467 Descending FlightAware ADS-B
Wed 06:17:07 PM 38.6900 -77.0370 86° East 403 464 12,300 -1,875 Descending FlightAware ADS-B
Wed 06:17:47 PM 38.6940 -76.9520 87° East 372 428 11,400 -1,341 Descending FlightAware ADS-B
Wed 06:18:32 PM 38.6990 -76.8620 86° East 337 388 10,400 -1,371 Descending FlightAware ADS-B
Wed 06:18:57 PM 38.7020 -76.8030 86° East 323 372 9,800 -1,309 Descending FlightAware ADS-B
Wed 06:19:27 PM 38.7070 -76.7510 83° East 317 365 9,200 -1,300 Descending FlightAware ADS-B
Wed 06:19:57 PM 38.7280 -76.6970 63° Northeast 306 352 8,500 -1,418 Descending FlightAware ADS-B
Wed 06:20:22 PM 38.7460 -76.6560 61° Northeast 301 346 7,900 -1,418 Descending FlightAware ADS-B
Wed 06:20:52 PM 38.7650 -76.6090 63° Northeast 297 342 7,200 -1,400 Descending FlightAware ADS-B
Wed 06:21:22 PM 38.7850 -76.5640 60° Northeast 294 338 6,500 -1,200 Descending FlightAware ADS-B
Wed 06:21:42 PM 38.8010 -76.5380 52° Northeast 286 329 6,200 -600 Descending FlightAware ADS-B
Wed 06:22:02 PM 38.8130 -76.5300 27° Northeast 280 322 6,100 -667 Descending FlightAware ADS-B
Wed 06:22:27 PM 38.8530 -76.5330 357° North 253 291 5,700 -1,320 Descending FlightAware ADS-B
Wed 06:22:52 PM 38.8820 -76.5430 345° North 250 288 5,000 -1,350 Descending FlightAware ADS-B
Wed 06:23:07 PM 38.8960 -76.5470 347° North 250 288 4,800 -1,200 Descending FlightAware ADS-B
Wed 06:23:32 PM 38.9290 -76.5560 348° North 249 287 4,200 -764 Descending FlightAware ADS-B
Wed 06:24:02 PM 38.9600 -76.5650 347° North 249 287 4,100 -327 Descending FlightAware ADS-B
Wed 06:24:27 PM 38.9890 -76.5740 346° North 252 290 3,900 -764 Descending FlightAware ADS-B
Wed 06:24:57 PM 39.0270 -76.5850 347° North 236 272 3,400 -1,000 Descending FlightAware ADS-B
Wed 06:25:27 PM 39.0540 -76.5930 347° North 231 266 2,900 -1,050 Descending FlightAware ADS-B
Wed 06:25:37 PM 39.0680 -76.5970 347° North 232 267 2,700 -343 Descending FlightAware ADS-B
Wed 06:26:02 PM 39.0920 -76.6040 347° North 232 267 2,700 -1,773 Level FlightAware ADS-B
Wed 06:26:21 PM 39.1167 -76.6167 347° North 217 250 1,400 -1,747 Descending Potomac TRACON
Wed 06:27:21 PM 39.1500 -76.6500 322° Northwest 165 190 400 -1,000 Descending Potomac TRACON
Wed 06:29:00 PM 39.1667 -76.6667 339° North  Level FlightAware Approximate
Wed 06:36:00 PM 39.1754 -76.6683 339° North  Level Estimated

Login

Don't have an account? Register now (free) for customized features, flight alerts, and more!